createdAt,value
2022-08-30T00:01:39.757Z,5.03
2022-08-30T00:06:41.432Z,4.15
2022-08-30T00:11:43.142Z,4.25
2022-08-30T00:16:44.718Z,4.68
2022-08-30T00:21:46.313Z,5.07
2022-08-30T00:26:47.966Z,4.45
2022-08-30T00:31:49.689Z,4.97
2022-08-30T00:36:51.299Z,4.65
2022-08-30T00:41:52.849Z,4.85
2022-08-30T00:46:54.427Z,5.00
2022-08-30T00:51:57.284Z,5.15
2022-08-30T00:56:59.778Z,4.90
2022-08-30T01:02:03.573Z,4.25
2022-08-30T01:07:05.504Z,4.72
2022-08-30T01:12:07.355Z,5.22
2022-08-30T01:17:09.571Z,5.38
2022-08-30T01:22:39.344Z,5.85
2022-08-30T01:27:48.106Z,4.97
2022-08-30T01:32:50.641Z,5.85
2022-08-30T01:37:52.289Z,5.85
2022-08-30T01:42:54.159Z,5.28
2022-08-30T01:47:56.223Z,5.43
2022-08-30T01:53:01.603Z,5.25
2022-08-30T01:58:03.429Z,5.53
2022-08-30T02:03:05.937Z,5.07
2022-08-30T02:08:07.772Z,5.47
2022-08-30T02:13:09.444Z,5.88
2022-08-30T02:18:11.084Z,5.85
2022-08-30T02:23:12.777Z,5.00
2022-08-30T02:28:15.714Z,6.13
2022-08-30T02:33:20.724Z,5.80
2022-08-30T02:38:23.786Z,5.55
2022-08-30T02:43:25.518Z,5.57
2022-08-30T02:48:27.084Z,6.05
2022-08-30T02:53:28.666Z,5.82
2022-08-30T02:58:30.257Z,5.82
2022-08-30T03:03:32.349Z,5.60
2022-08-30T03:08:34.495Z,5.85
2022-08-30T03:13:36.401Z,5.57
2022-08-30T03:18:37.990Z,6.45
2022-08-30T03:23:40.849Z,5.15
2022-08-30T03:28:43.345Z,5.95
2022-08-30T03:33:45.022Z,5.07
2022-08-30T03:38:46.643Z,5.18
2022-08-30T03:43:48.293Z,4.75
2022-08-30T03:48:49.970Z,5.07
2022-08-30T03:53:52.154Z,4.80
2022-08-30T03:58:53.766Z,4.78
2022-08-30T04:03:56.643Z,5.45
2022-08-30T04:08:58.280Z,6.47
2022-08-30T04:13:59.905Z,5.90
2022-08-30T04:19:01.753Z,6.50
2022-08-30T04:24:03.950Z,5.85
2022-08-30T04:29:05.974Z,7.03
2022-08-30T04:34:10.088Z,7.93
2022-08-30T04:39:11.682Z,7.90
2022-08-30T04:44:15.841Z,7.68
2022-08-30T04:49:21.665Z,7.22
2022-08-30T04:54:23.303Z,6.95
2022-08-30T04:59:24.920Z,8.13
2022-08-30T05:04:26.673Z,7.70
2022-08-30T05:09:28.369Z,7.55
2022-08-30T05:14:30.097Z,7.57
2022-08-30T05:19:33.693Z,6.68
2022-08-30T05:24:36.246Z,7.40
2022-08-30T05:29:37.864Z,6.65
2022-08-30T05:34:39.535Z,6.28
2022-08-30T05:39:51.345Z,5.95
2022-08-30T05:44:54.468Z,6.75
2022-08-30T05:49:56.325Z,7.15
2022-08-30T05:55:03.989Z,6.75
2022-08-30T06:00:13.570Z,6.55
2022-08-30T06:05:15.818Z,6.10
2022-08-30T06:10:18.095Z,4.82
2022-08-30T06:15:19.658Z,5.00
2022-08-30T06:20:21.316Z,4.20
2022-08-30T06:25:22.954Z,5.78
2022-08-30T06:30:24.571Z,5.45
2022-08-30T06:35:27.504Z,6.13
2022-08-30T06:40:29.365Z,6.65
2022-08-30T06:45:31.136Z,5.97
2022-08-30T06:50:32.863Z,5.53
2022-08-30T06:55:34.783Z,5.82
2022-08-30T07:00:36.403Z,5.32
2022-08-30T07:05:38.368Z,5.38
2022-08-30T07:10:41.252Z,5.95
2022-08-30T07:15:44.566Z,5.88
2022-08-30T07:20:46.414Z,5.47
2022-08-30T07:25:48.290Z,5.03
2022-08-30T07:30:50.023Z,5.35
2022-08-30T07:35:51.664Z,5.20
2022-08-30T07:40:53.727Z,5.82
2022-08-30T07:45:57.534Z,4.68
2022-08-30T07:51:04.531Z,4.80
2022-08-30T07:56:07.401Z,5.30
2022-08-30T08:01:11.237Z,4.90
2022-08-30T08:06:15.185Z,3.92
2022-08-30T08:11:20.836Z,3.38
2022-08-30T08:16:25.802Z,3.80
2022-08-30T08:21:28.174Z,3.90
2022-08-30T08:26:29.835Z,3.10
2022-08-30T08:31:33.441Z,3.83
2022-08-30T08:36:36.502Z,3.35
2022-08-30T08:42:12.482Z,3.45
2022-08-30T08:47:26.034Z,3.10
2022-08-30T08:53:04.388Z,3.20
2022-08-30T08:58:06.026Z,3.38
2022-08-30T09:03:13.705Z,3.05
2022-08-30T09:08:18.940Z,2.63
2022-08-30T09:13:22.809Z,3.10
2022-08-30T09:18:45.626Z,3.03
2022-08-30T09:23:50.452Z,2.88
2022-08-30T09:28:51.988Z,1.88
2022-08-30T09:34:08.863Z,2.00
2022-08-30T09:39:30.427Z,2.28
2022-08-30T09:44:38.081Z,2.47
2022-08-30T09:49:45.590Z,2.33
2022-08-30T09:54:53.188Z,2.70
2022-08-30T10:00:04.375Z,2.85
2022-08-30T10:05:18.159Z,2.08
2022-08-30T10:10:45.777Z,3.15
2022-08-30T10:16:13.666Z,3.15
2022-08-30T10:21:21.020Z,2.65
2022-08-30T10:26:29.997Z,2.60
2022-08-30T10:31:56.162Z,2.28
2022-08-30T10:37:03.262Z,1.95
2022-08-30T10:42:16.451Z,1.98
2022-08-30T10:47:30.102Z,1.88
2022-08-30T10:52:54.660Z,1.73
2022-08-30T10:58:06.599Z,1.57
2022-08-30T11:03:29.626Z,1.40
2022-08-30T11:08:46.054Z,1.48
2022-08-30T11:13:49.697Z,1.20
2022-08-30T11:18:56.376Z,1.60
2022-08-30T11:24:03.561Z,1.20
2022-08-30T11:29:07.773Z,1.25
2022-08-30T11:34:10.769Z,1.65
2022-08-30T11:39:33.796Z,1.20
2022-08-30T11:44:35.459Z,1.50
2022-08-30T11:49:50.216Z,1.35
2022-08-30T11:55:10.663Z,1.40
2022-08-30T12:00:28.713Z,1.15
2022-08-30T12:05:42.866Z,1.50
2022-08-30T12:10:54.067Z,1.08
2022-08-30T12:16:03.628Z,1.50
2022-08-30T12:21:13.008Z,1.48
2022-08-30T12:26:17.811Z,1.40
2022-08-30T12:31:25.882Z,1.65
2022-08-30T12:37:00.224Z,1.63
2022-08-30T12:42:36.053Z,1.52
2022-08-30T12:47:48.050Z,1.70
2022-08-30T12:53:09.349Z,1.80
2022-08-30T12:58:15.499Z,2.20
2022-08-30T13:03:39.627Z,2.20
2022-08-30T13:08:46.001Z,1.52
2022-08-30T13:14:01.328Z,2.13
2022-08-30T13:19:41.509Z,2.08
2022-08-30T13:24:43.191Z,2.33
2022-08-30T13:29:45.009Z,2.10
2022-08-30T13:34:46.620Z,2.40
2022-08-30T13:39:51.326Z,2.13
2022-08-30T13:44:54.039Z,1.85
2022-08-30T13:49:56.130Z,1.75
2022-08-30T13:54:58.322Z,2.05
2022-08-30T14:00:00.239Z,1.60
2022-08-30T14:05:03.206Z,1.60
2022-08-30T14:15:27.984Z,1.85
2022-08-30T14:20:29.678Z,1.88
2022-08-30T14:25:31.333Z,1.60
2022-08-30T14:30:33.357Z,1.70
2022-08-30T14:35:35.917Z,1.42
2022-08-30T14:40:37.610Z,1.70
2022-08-30T14:45:39.657Z,1.50
2022-08-30T14:50:41.398Z,1.50
2022-08-30T14:55:43.308Z,1.33
2022-08-30T15:00:52.611Z,1.67
2022-08-30T15:05:54.370Z,1.55
2022-08-30T15:10:56.109Z,1.23
2022-08-30T15:15:57.730Z,1.27
2022-08-30T15:20:59.409Z,1.25
2022-08-30T15:26:01.465Z,1.45
2022-08-30T15:31:08.740Z,1.40
2022-08-30T15:36:12.080Z,1.40
2022-08-30T15:41:14.090Z,1.40
2022-08-30T15:46:32.337Z,1.20
2022-08-30T15:51:41.233Z,1.17
2022-08-30T15:56:44.826Z,1.30
2022-08-30T16:01:47.793Z,1.40
2022-08-30T16:06:49.685Z,1.50
2022-08-30T16:11:51.312Z,1.35
2022-08-30T16:16:52.884Z,1.65
2022-08-30T16:21:54.523Z,1.45
2022-08-30T16:26:56.756Z,1.30
2022-08-30T16:31:58.616Z,1.30
2022-08-30T16:37:00.256Z,1.50
2022-08-30T16:42:03.302Z,1.73
2022-08-30T16:47:09.088Z,1.30
2022-08-30T16:52:14.445Z,1.58
2022-08-30T16:57:16.194Z,1.30
2022-08-30T17:02:17.906Z,1.67
2022-08-30T17:07:21.517Z,1.30
2022-08-30T17:12:24.669Z,1.73
2022-08-30T17:17:27.812Z,1.58
2022-08-30T17:22:31.312Z,1.90
2022-08-30T17:27:33.794Z,1.55
2022-08-30T17:32:35.470Z,1.80
2022-08-30T17:37:37.071Z,1.45
2022-08-30T17:42:40.964Z,1.70
2022-08-30T17:47:47.077Z,1.48
2022-08-30T18:04:55.506Z,1.80
2022-08-30T18:09:57.280Z,1.80
2022-08-30T18:15:00.486Z,2.28
2022-08-30T18:20:02.608Z,2.05
2022-08-30T18:25:05.763Z,1.70
2022-08-30T18:30:11.438Z,1.90
2022-08-30T18:35:14.059Z,1.90
2022-08-30T18:40:18.661Z,2.15
2022-08-30T18:45:20.675Z,1.92
2022-08-30T18:50:22.645Z,1.88
2022-08-30T18:55:26.926Z,2.08
2022-08-30T19:00:29.780Z,1.70
2022-08-30T19:05:31.724Z,2.10
2022-08-30T19:10:35.833Z,2.08
2022-08-30T19:15:37.665Z,2.22
2022-08-30T19:20:39.425Z,2.45
2022-08-30T19:25:43.931Z,2.33
2022-08-30T19:30:45.549Z,2.40
2022-08-30T19:35:51.195Z,2.47
2022-08-30T19:40:59.005Z,2.92
2022-08-30T19:46:00.715Z,3.15
2022-08-30T19:51:10.161Z,3.40
2022-08-30T19:56:12.594Z,3.15
2022-08-30T20:01:32.494Z,3.38
2022-08-30T20:06:35.943Z,3.45
2022-08-30T20:11:39.082Z,4.22
2022-08-30T20:16:42.550Z,4.22
2022-08-30T20:21:48.016Z,3.50
2022-08-30T20:26:51.783Z,4.20
2022-08-30T20:31:53.403Z,4.10
2022-08-30T20:36:56.189Z,4.97
2022-08-30T20:41:58.270Z,3.78
2022-08-30T20:46:59.930Z,3.53
2022-08-30T20:52:01.551Z,3.65
2022-08-30T20:57:07.121Z,4.32
2022-08-30T21:02:08.880Z,3.45
2022-08-30T21:07:12.600Z,3.47
2022-08-30T21:12:14.226Z,3.83
2022-08-30T21:17:16.152Z,3.25
2022-08-30T21:22:17.748Z,2.83
2022-08-30T21:27:21.335Z,3.33
2022-08-30T21:32:22.967Z,3.22
2022-08-30T21:37:24.717Z,3.13
2022-08-30T21:42:26.963Z,3.33
2022-08-30T21:47:28.624Z,3.20
2022-08-30T21:52:30.611Z,3.40
2022-08-30T21:57:32.939Z,3.10
2022-08-30T22:02:34.664Z,3.72
2022-08-30T22:07:37.440Z,3.92
2022-08-30T22:12:39.525Z,3.00
2022-08-30T22:17:43.669Z,3.40
2022-08-30T22:22:45.409Z,3.17
2022-08-30T22:27:47.017Z,2.72
2022-08-30T22:32:48.780Z,3.42
2022-08-30T22:37:53.398Z,3.03
2022-08-30T22:42:55.351Z,2.85
2022-08-30T22:47:56.977Z,3.63
2022-08-30T22:52:59.254Z,3.95
2022-08-30T22:58:00.805Z,3.28
2022-08-30T23:03:02.448Z,3.40
2022-08-30T23:08:05.592Z,3.25
2022-08-30T23:13:07.316Z,3.78
2022-08-30T23:18:08.905Z,4.32
2022-08-30T23:23:10.458Z,3.55
2022-08-30T23:28:30.575Z,3.13
2022-08-30T23:33:50.860Z,3.53
2022-08-30T23:39:11.028Z,4.07
2022-08-30T23:44:31.418Z,3.63
2022-08-30T23:49:52.028Z,3.58
2022-08-30T23:55:12.235Z,3.90
